Time;durP1;ratioP1;P1;durP2;ratioP2;P2;SDS_P1;SDS_P2;PMS_P1;PMS_P2;Temp;Humidity;BMP_temperature;BMP_pressure;BME280_temperature;BME280_humidity;BME280_pressure;Samples;Min_cycle;Max_cycle;Signal;HPM_P1;HPM_P2
2022/11/25 00:00:52;;;;;;;11.27;7.40;;;23.10;56.60;;;;;;5055019;28;20141;-68
2022/11/25 00:03:18;;;;;;;11.65;7.65;;;23.10;56.40;;;;;;5050445;28;20037;-68
2022/11/25 00:05:44;;;;;;;12.50;7.70;;;23.10;56.60;;;;;;5049442;28;20455;-68
2022/11/25 00:08:10;;;;;;;11.63;6.97;;;23.00;56.50;;;;;;5066441;28;20084;-68
2022/11/25 00:10:36;;;;;;;13.68;7.18;;;23.00;56.80;;;;;;5067556;28;20043;-67
2022/11/25 00:13:02;;;;;;;12.38;7.25;;;23.00;56.80;;;;;;5070316;28;20029;-68
2022/11/25 00:15:28;;;;;;;12.95;7.50;;;22.90;56.90;;;;;;5067688;28;20039;-67
2022/11/25 00:17:54;;;;;;;10.82;7.40;;;22.90;57.00;;;;;;5049956;28;20037;-67
2022/11/25 00:20:21;;;;;;;13.05;7.70;;;22.90;57.10;;;;;;5070298;28;20381;-68
2022/11/25 00:22:47;;;;;;;14.10;7.93;;;22.90;57.00;;;;;;5048994;28;20119;-68
2022/11/25 00:25:13;;;;;;;12.93;7.50;;;22.80;57.20;;;;;;5051062;28;20111;-68
2022/11/25 00:27:39;;;;;;;13.85;7.45;;;22.80;57.00;;;;;;5070011;28;20518;-67
2022/11/25 00:30:07;;;;;;;12.13;7.30;;;22.80;56.80;;;;;;5069166;28;20039;-68
2022/11/25 00:32:33;;;;;;;13.30;8.02;;;22.80;56.80;;;;;;5069535;28;20029;-67
2022/11/25 00:34:59;;;;;;;12.77;7.75;;;23.00;56.90;;;;;;5072616;28;20028;-68
2022/11/25 00:37:25;;;;;;;11.85;6.50;;;22.90;56.60;;;;;;5046016;28;20493;-67
2022/11/25 00:39:51;;;;;;;14.95;7.68;;;22.80;56.60;;;;;;5067077;28;20436;-68
2022/11/25 00:45:02;;;;;;;15.23;7.40;;;23.00;56.50;;;;;;5072011;28;20119;-68
2022/11/25 00:47:28;;;;;;;14.20;7.93;;;23.00;56.70;;;;;;5060413;28;20032;-68
2022/11/25 00:49:55;;;;;;;16.02;8.48;;;23.00;56.40;;;;;;5052936;28;20040;-68
2022/11/25 00:52:24;;;;;;;15.25;8.20;;;23.00;56.40;;;;;;5072916;28;20063;-68
2022/11/25 00:54:51;;;;;;;13.90;7.93;;;22.90;56.40;;;;;;5054245;28;20039;-68
2022/11/25 00:57:20;;;;;;;11.68;7.70;;;22.80;56.60;;;;;;5036251;28;20095;-68
2022/11/25 00:59:46;;;;;;;13.55;8.20;;;22.80;56.60;;;;;;5053380;28;20029;-67
2022/11/25 01:02:16;;;;;;;9.93;7.07;;;22.70;56.50;;;;;;5056135;28;20086;-68
2022/11/25 01:04:43;;;;;;;11.30;6.25;;;22.90;56.70;;;;;;5035038;28;20044;-68
2022/11/25 01:07:09;;;;;;;14.77;7.22;;;22.70;56.50;;;;;;5054612;28;20056;-67
2022/11/25 01:09:36;;;;;;;16.33;8.25;;;22.80;56.40;;;;;;5078619;28;20391;-67
2022/11/25 01:12:04;;;;;;;14.38;7.75;;;22.80;56.50;;;;;;5091329;28;20404;-67
2022/11/25 01:14:30;;;;;;;11.93;6.90;;;22.80;56.40;;;;;;5078200;28;20461;-68
2022/11/25 01:16:56;;;;;;;12.85;7.82;;;22.70;56.60;;;;;;5075498;28;20028;-67
2022/11/25 01:19:23;;;;;;;10.68;6.75;;;22.80;56.70;;;;;;5073246;28;20115;-68
2022/11/25 01:21:49;;;;;;;11.27;6.70;;;22.60;56.70;;;;;;5071675;28;20032;-68
2022/11/25 01:24:15;;;;;;;12.05;7.32;;;22.70;57.00;;;;;;5088449;28;20060;-67
2022/11/25 01:26:43;;;;;;;11.52;7.10;;;22.80;56.60;;;;;;5073203;28;20033;-68
2022/11/25 01:29:16;;;;;;;13.00;6.65;;;22.80;56.60;;;;;;5071783;28;20040;-68
2022/11/25 01:31:43;;;;;;;8.80;6.63;;;22.70;56.50;;;;;;5082169;28;20064;-68
2022/11/25 01:34:20;;;;;;;10.63;6.60;;;22.80;56.40;;;;;;5089148;28;20116;-68
2022/11/25 01:36:47;;;;;;;10.93;7.28;;;22.70;56.50;;;;;;5089033;28;20038;-67
2022/11/25 01:39:18;;;;;;;14.85;7.53;;;22.80;56.60;;;;;;5092730;28;20032;-68
2022/11/25 01:41:45;;;;;;;9.82;6.18;;;22.60;56.40;;;;;;5092040;28;20043;-67
2022/11/25 01:44:15;;;;;;;14.27;7.40;;;22.70;56.70;;;;;;5088258;28;20040;-68
2022/11/25 01:46:46;;;;;;;10.05;6.60;;;22.70;56.30;;;;;;5083304;28;20066;-68
2022/11/25 01:49:27;;;;;;;11.20;6.93;;;22.70;56.40;;;;;;5091860;28;20044;-68
2022/11/25 01:52:02;;;;;;;11.18;6.53;;;22.70;56.50;;;;;;5087316;28;20016;-68
2022/11/25 01:54:33;;;;;;;10.73;6.70;;;22.70;56.40;;;;;;5091689;28;20046;-68
2022/11/25 01:57:10;;;;;;;11.43;6.72;;;22.60;56.40;;;;;;5071371;28;20033;-68
2022/11/25 01:59:42;;;;;;;11.60;7.05;;;22.60;56.50;;;;;;5088173;28;20056;-68
2022/11/25 02:02:08;;;;;;;10.32;6.50;;;22.50;56.70;;;;;;5075861;28;20033;-68
2022/11/25 02:04:37;;;;;;;10.10;6.55;;;22.50;56.70;;;;;;5071005;28;20070;-68
2022/11/25 02:07:13;;;;;;;9.27;5.72;;;22.40;56.70;;;;;;5088538;28;20067;-68
2022/11/25 02:09:41;;;;;;;10.27;7.00;;;22.40;56.90;;;;;;5071733;28;20067;-68
2022/11/25 02:12:08;;;;;;;8.93;6.43;;;22.30;56.70;;;;;;5049608;28;20021;-68
2022/11/25 02:14:34;;;;;;;9.65;6.78;;;22.50;56.80;;;;;;4968258;28;20136;-68
2022/11/25 02:17:01;;;;;;;9.38;6.80;;;22.50;56.70;;;;;;5042860;28;20090;-68
2022/11/25 02:19:50;;;;;;;9.57;6.85;;;22.50;56.60;;;;;;5051885;28;20142;-68
2022/11/25 02:22:26;;;;;;;9.48;6.13;;;22.50;56.70;;;;;;5040376;28;20087;-68
2022/11/25 02:24:56;;;;;;;8.73;6.35;;;22.50;56.50;;;;;;5072068;28;20497;-68
2022/11/25 02:27:22;;;;;;;10.43;6.55;;;22.60;56.10;;;;;;5070560;28;20028;-68
2022/11/25 02:29:50;;;;;;;6.80;5.18;;;22.70;56.10;;;;;;5071019;28;20044;-68
2022/11/25 02:32:22;;;;;;;7.10;5.30;;;22.80;56.20;;;;;;5044867;28;20033;-68
2022/11/25 02:34:48;;;;;;;9.93;5.95;;;22.70;55.90;;;;;;5041968;28;20037;-68
2022/11/25 02:37:22;;;;;;;7.47;5.43;;;22.70;56.00;;;;;;5053661;28;20029;-68
2022/11/25 02:39:48;;;;;;;8.43;5.68;;;22.60;55.90;;;;;;5071864;28;20036;-68
2022/11/25 02:42:18;;;;;;;6.22;4.90;;;22.60;55.90;;;;;;5039065;28;20041;-68
2022/11/25 02:44:47;;;;;;;7.20;5.22;;;22.60;56.10;;;;;;5033776;28;20032;-68
2022/11/25 02:47:13;;;;;;;7.22;5.03;;;22.60;56.20;;;;;;5057410;28;20454;-68
2022/11/25 02:49:39;;;;;;;7.53;5.13;;;22.50;56.20;;;;;;5034246;28;20031;-68
2022/11/25 02:52:05;;;;;;;5.53;4.63;;;22.50;56.20;;;;;;5070337;28;20033;-68
2022/11/25 02:54:31;;;;;;;6.68;4.60;;;22.40;56.10;;;;;;5053306;28;20041;-68
2022/11/25 02:56:59;;;;;;;9.20;4.72;;;22.50;56.40;;;;;;5051979;28;20028;-68
2022/11/25 02:59:25;;;;;;;5.60;3.78;;;22.50;56.50;;;;;;5053400;28;20059;-68
2022/11/25 03:01:51;;;;;;;6.40;4.70;;;22.50;56.40;;;;;;5044253;28;20036;-68
2022/11/25 03:04:17;;;;;;;5.70;4.50;;;22.30;56.00;;;;;;5033345;28;20106;-68
2022/11/25 03:06:43;;;;;;;7.93;4.45;;;22.50;56.10;;;;;;5052341;28;20054;-67
2022/11/25 03:09:09;;;;;;;6.53;4.53;;;22.60;56.20;;;;;;5071010;28;20044;-68
2022/11/25 03:14:22;;;;;;;5.10;4.13;;;22.60;55.80;;;;;;5070356;28;20067;-67
2022/11/25 03:16:48;;;;;;;5.95;4.22;;;22.60;55.70;;;;;;5018941;28;20582;-68
2022/11/25 03:19:14;;;;;;;5.68;4.38;;;22.60;56.00;;;;;;5007706;28;20572;-68
2022/11/25 03:21:40;;;;;;;5.30;4.32;;;22.60;55.80;;;;;;5008375;28;20084;-68
2022/11/25 03:24:06;;;;;;;6.07;3.83;;;22.60;55.60;;;;;;5008674;28;20093;-67
2022/11/25 03:26:32;;;;;;;4.18;3.63;;;22.50;55.80;;;;;;5010494;28;20045;-68
2022/11/25 03:28:58;;;;;;;4.68;4.07;;;22.50;55.70;;;;;;5009454;28;20506;-68
2022/11/25 03:31:24;;;;;;;4.93;3.65;;;22.50;55.90;;;;;;5018353;28;20057;-68
2022/11/25 03:33:50;;;;;;;5.78;3.55;;;22.40;55.80;;;;;;5008670;28;20475;-68
2022/11/25 03:36:16;;;;;;;5.13;4.05;;;22.50;56.10;;;;;;5008410;28;20565;-68
2022/11/25 03:38:42;;;;;;;4.65;3.42;;;22.40;55.70;;;;;;5011704;28;20037;-68
2022/11/25 03:41:08;;;;;;;5.30;3.55;;;22.40;56.10;;;;;;5010896;28;20045;-68
2022/11/25 03:43:35;;;;;;;5.40;3.80;;;22.50;56.00;;;;;;5011863;28;20050;-68
2022/11/25 03:46:01;;;;;;;4.88;3.90;;;22.40;55.80;;;;;;5025059;28;20038;-68
2022/11/25 03:48:27;;;;;;;4.82;3.72;;;22.40;54.80;;;;;;5029681;28;20458;-67
2022/11/25 03:50:54;;;;;;;4.93;3.63;;;22.40;55.90;;;;;;5031148;28;20112;-68
2022/11/25 03:53:22;;;;;;;5.95;3.75;;;22.50;56.10;;;;;;5052681;28;20037;-68
2022/11/25 03:55:48;;;;;;;4.90;3.60;;;22.40;55.90;;;;;;5051482;28;20489;-67
2022/11/25 03:58:15;;;;;;;4.18;3.13;;;22.50;55.70;;;;;;5047298;28;20028;-68
2022/11/25 04:00:41;;;;;;;5.78;4.18;;;22.60;55.80;;;;;;5032526;28;20062;-68
2022/11/25 04:03:08;;;;;;;4.85;3.65;;;22.50;55.60;;;;;;5000011;28;20098;-68
2022/11/25 04:05:34;;;;;;;3.65;3.30;;;22.50;55.80;;;;;;5032593;28;20068;-68
2022/11/25 04:08:04;;;;;;;4.43;3.05;;;22.60;55.60;;;;;;5051488;28;20127;-68
2022/11/25 04:10:32;;;;;;;3.95;3.20;;;22.50;55.40;;;;;;5074059;28;20497;-68
2022/11/25 04:12:58;;;;;;;5.00;3.88;;;22.50;55.10;;;;;;5073052;28;20025;-68
2022/11/25 04:15:32;;;;;;;3.83;3.42;;;22.40;55.70;;;;;;5076327;28;20400;-68
2022/11/25 04:17:58;;;;;;;3.80;2.92;;;22.50;55.70;;;;;;5079934;28;20036;-68
2022/11/25 04:20:24;;;;;;;4.13;3.50;;;22.40;55.80;;;;;;5087657;28;20111;-68
2022/11/25 04:23:05;;;;;;;5.03;3.03;;;22.30;55.60;;;;;;5074528;28;20024;-68
2022/11/25 04:25:33;;;;;;;3.92;3.10;;;22.40;55.80;;;;;;5083306;28;20036;-68
2022/11/25 04:28:00;;;;;;;4.45;3.05;;;22.30;55.70;;;;;;5087776;28;20067;-68
2022/11/25 04:30:32;;;;;;;4.18;3.33;;;22.30;56.00;;;;;;5087054;28;20396;-68
2022/11/25 04:33:00;;;;;;;4.63;3.05;;;22.10;55.80;;;;;;5087007;28;20423;-67
2022/11/25 04:35:26;;;;;;;4.00;3.00;;;22.20;55.80;;;;;;5091477;28;20476;-66
2022/11/25 04:37:53;;;;;;;3.75;2.70;;;22.30;55.60;;;;;;5092663;28;20119;-67
2022/11/25 04:40:21;;;;;;;3.15;2.85;;;22.20;55.50;;;;;;5091562;28;20457;-68
2022/11/25 04:42:54;;;;;;;4.63;2.80;;;22.30;55.50;;;;;;5092410;28;20063;-68
2022/11/25 04:45:21;;;;;;;3.60;2.90;;;22.40;55.40;;;;;;5091234;28;20043;-67
2022/11/25 04:47:47;;;;;;;3.47;3.17;;;22.40;55.40;;;;;;5085067;28;20536;-68
2022/11/25 04:50:17;;;;;;;3.00;2.33;;;22.30;55.50;;;;;;5082387;28;20111;-67
2022/11/25 04:53:03;;;;;;;3.25;2.35;;;22.40;55.60;;;;;;5073792;28;20044;-68
2022/11/25 04:55:30;;;;;;;3.55;2.88;;;22.30;55.50;;;;;;5086528;28;20032;-67
2022/11/25 04:57:57;;;;;;;3.35;3.05;;;22.50;55.40;;;;;;5092402;28;20385;-68
2022/11/25 05:00:23;;;;;;;3.53;2.50;;;22.50;55.00;;;;;;5091472;28;20127;-68
2022/11/25 05:02:49;;;;;;;3.88;2.92;;;22.60;54.80;;;;;;5092757;28;20063;-68
2022/11/25 05:05:19;;;;;;;3.30;2.80;;;22.60;54.80;;;;;;5091579;28;20040;-68
2022/11/25 05:07:45;;;;;;;3.47;2.53;;;22.60;54.70;;;;;;5085071;28;20131;-68
2022/11/25 05:10:12;;;;;;;2.63;2.33;;;22.50;55.00;;;;;;5030027;28;20064;-68
2022/11/25 05:12:43;;;;;;;3.25;2.63;;;22.60;54.80;;;;;;5030944;28;20054;-68
2022/11/25 05:15:14;;;;;;;3.20;2.60;;;22.50;54.90;;;;;;5012122;28;20037;-68
2022/11/25 05:17:43;;;;;;;3.45;2.72;;;22.50;55.00;;;;;;4996739;28;20029;-68
2022/11/25 05:20:11;;;;;;;3.58;2.80;;;22.40;54.90;;;;;;4999712;28;20032;-68
2022/11/25 05:22:37;;;;;;;2.85;2.63;;;22.50;55.10;;;;;;5010895;28;20064;-68
2022/11/25 05:25:05;;;;;;;2.67;2.40;;;22.40;55.20;;;;;;5004540;28;20044;-68
2022/11/25 05:27:34;;;;;;;3.55;2.80;;;22.40;55.40;;;;;;4994048;28;20049;-68
2022/11/25 05:30:07;;;;;;;3.55;3.13;;;22.40;55.30;;;;;;4993271;28;20717;-68
2022/11/25 05:32:33;;;;;;;2.92;2.60;;;22.50;55.40;;;;;;4978531;28;20085;-68
2022/11/25 05:35:02;;;;;;;3.10;2.60;;;22.50;55.30;;;;;;4998016;28;20418;-69
2022/11/25 05:37:28;;;;;;;3.13;2.83;;;22.50;54.90;;;;;;5010148;28;20037;-70
2022/11/25 05:40:01;;;;;;;3.92;2.65;;;22.50;52.80;;;;;;4993650;28;20081;-66
2022/11/25 05:42:41;;;;;;;2.95;2.40;;;22.50;51.30;;;;;;4994667;28;20042;-67
2022/11/25 05:45:08;;;;;;;3.10;2.80;;;22.60;47.90;;;;;;5011457;28;20501;-68
2022/11/25 05:47:34;;;;;;;3.75;2.65;;;22.60;47.50;;;;;;5017023;28;20374;-67
2022/11/25 05:50:01;;;;;;;3.85;3.10;;;22.90;45.60;;;;;;5043402;28;20048;-66
2022/11/25 05:52:28;;;;;;;2.78;2.28;;;22.90;45.30;;;;;;5031569;28;20696;-68
2022/11/25 05:54:57;;;;;;;2.63;2.33;;;23.10;45.50;;;;;;5045785;28;20041;-70
2022/11/25 05:57:23;;;;;;;3.22;2.55;;;23.20;45.60;;;;;;5052746;28;20032;-71
2022/11/25 05:59:53;;;;;;;3.17;2.88;;;23.20;47.20;;;;;;5053819;28;20052;-70
2022/11/25 06:02:25;;;;;;;5.05;2.78;;;23.20;46.90;;;;;;5052058;28;20029;-68
2022/11/25 06:04:51;;;;;;;2.95;2.30;;;23.20;45.00;;;;;;5036146;28;20037;-67
2022/11/25 06:07:17;;;;;;;2.50;2.30;;;23.30;42.50;;;;;;5012967;28;20440;-67
2022/11/25 06:09:43;;;;;;;3.13;2.55;;;23.40;44.40;;;;;;5058437;28;20051;-66
2022/11/25 06:12:10;;;;;;;4.03;2.67;;;23.30;43.50;;;;;;5086337;28;20056;-67
2022/11/25 06:14:42;;;;;;;5.75;3.63;;;23.40;42.80;;;;;;5083281;28;20433;-66
2022/11/25 06:17:08;;;;;;;3.42;3.00;;;23.20;41.50;;;;;;5085324;28;20048;-67
2022/11/25 06:19:42;;;;;;;2.75;2.47;;;23.40;43.90;;;;;;5071089;28;20489;-67
2022/11/25 06:22:09;;;;;;;3.50;2.75;;;23.30;53.90;;;;;;5064779;28;20045;-66
2022/11/25 06:24:34;;;;;;;3.45;3.08;;;23.60;57.80;;;;;;5060155;28;20031;-65
2022/11/25 06:27:05;;;;;;;2.80;2.60;;;23.50;60.20;;;;;;5088724;28;20044;-65
2022/11/25 06:29:32;;;;;;;4.10;3.15;;;23.40;57.70;;;;;;5064290;28;20107;-67
2022/11/25 06:31:58;;;;;;;2.67;2.35;;;23.30;58.10;;;;;;5051366;28;20049;-64
2022/11/25 06:34:40;;;;;;;3.20;2.90;;;23.30;58.50;;;;;;5054062;28;20054;-67
2022/11/25 06:37:09;;;;;;;6.03;3.00;;;23.40;58.40;;;;;;5064479;28;20040;-66
2022/11/25 06:39:35;;;;;;;3.67;2.65;;;23.50;58.10;;;;;;5082806;28;20755;-68
2022/11/25 06:42:01;;;;;;;3.33;2.63;;;23.50;57.60;;;;;;5079094;28;20074;-68
2022/11/25 06:44:27;;;;;;;2.45;2.25;;;23.30;58.20;;;;;;5071399;28;20031;-65
2022/11/25 06:46:53;;;;;;;3.45;2.35;;;23.60;56.70;;;;;;5081523;28;20040;-66
2022/11/25 06:49:19;;;;;;;4.93;2.47;;;23.50;56.40;;;;;;5090288;28;20036;-67
2022/11/25 06:51:47;;;;;;;2.53;2.33;;;23.70;58.10;;;;;;5088346;28;20036;-69
2022/11/25 06:54:13;;;;;;;3.75;3.38;;;23.60;58.10;;;;;;5080606;28;20046;-68
2022/11/25 06:56:39;;;;;;;3.72;2.97;;;23.80;53.40;;;;;;5079480;28;20465;-70
2022/11/25 06:59:06;;;;;;;3.30;3.00;;;23.70;53.70;;;;;;5070052;28;20055;-68
2022/11/25 07:01:32;;;;;;;4.50;3.13;;;23.60;52.30;;;;;;5076154;28;20024;-68
2022/11/25 07:04:03;;;;;;;3.45;2.67;;;23.60;50.60;;;;;;5085824;28;20477;-69
2022/11/25 07:06:32;;;;;;;3.80;2.97;;;23.60;49.00;;;;;;5080358;28;20044;-69
2022/11/25 07:08:59;;;;;;;4.22;2.80;;;23.70;46.40;;;;;;5062750;28;20059;-70
2022/11/25 07:11:29;;;;;;;2.85;2.30;;;23.70;50.10;;;;;;5069758;28;20541;-70
2022/11/25 07:14:04;;;;;;;3.42;2.60;;;23.60;50.20;;;;;;5071212;28;20044;-69
2022/11/25 07:16:31;;;;;;;3.28;2.95;;;23.60;47.70;;;;;;5052599;28;20151;-69
2022/11/25 07:19:01;;;;;;;3.97;3.20;;;23.60;48.30;;;;;;5066526;28;20478;-69
2022/11/25 07:21:29;;;;;;;3.70;3.00;;;23.50;50.10;;;;;;5063696;28;20025;-69
2022/11/25 07:23:56;;;;;;;3.50;3.08;;;23.30;49.80;;;;;;5050936;28;20032;-69
2022/11/25 07:26:25;;;;;;;4.05;3.05;;;23.40;50.20;;;;;;5050642;28;20045;-69
2022/11/25 07:28:54;;;;;;;3.13;2.83;;;23.20;50.40;;;;;;5069216;28;20068;-68
2022/11/25 07:31:23;;;;;;;5.15;2.65;;;23.20;51.60;;;;;;5054018;28;20037;-68
2022/11/25 07:33:54;;;;;;;4.03;3.00;;;23.20;51.70;;;;;;5064023;28;20072;-69
2022/11/25 07:36:21;;;;;;;6.03;3.10;;;23.10;51.20;;;;;;5068919;28;20123;-69
2022/11/25 07:38:47;;;;;;;4.53;3.10;;;23.20;51.20;;;;;;5070324;28;20425;-69
2022/11/25 07:41:16;;;;;;;3.67;3.03;;;23.10;51.90;;;;;;5071016;28;20477;-69
2022/11/25 07:43:47;;;;;;;4.70;2.97;;;23.10;51.80;;;;;;5069753;28;20477;-69
2022/11/25 07:46:22;;;;;;;4.15;3.08;;;23.10;52.20;;;;;;5052667;28;20414;-68
2022/11/25 07:48:49;;;;;;;5.03;3.40;;;23.20;52.30;;;;;;5070967;28;20392;-69
2022/11/25 07:51:16;;;;;;;4.32;3.47;;;23.10;52.60;;;;;;5068491;28;20039;-68
2022/11/25 07:53:42;;;;;;;4.65;3.42;;;23.00;52.80;;;;;;5058209;28;20075;-69
2022/11/25 07:56:08;;;;;;;5.07;3.58;;;23.10;53.10;;;;;;5050500;28;20109;-69
2022/11/25 07:58:34;;;;;;;5.60;3.03;;;23.10;52.80;;;;;;5050285;28;20067;-68
2022/11/25 08:01:07;;;;;;;3.70;3.08;;;23.10;51.30;;;;;;5060911;28;20430;-69
2022/11/25 08:03:35;;;;;;;5.07;3.30;;;23.00;52.70;;;;;;5069193;28;20036;-68
2022/11/25 08:06:08;;;;;;;4.35;3.03;;;23.00;53.30;;;;;;5048612;28;20025;-69
2022/11/25 08:08:35;;;;;;;4.30;3.10;;;23.00;53.30;;;;;;5070187;28;20144;-68
2022/11/25 08:11:16;;;;;;;4.45;3.63;;;23.00;53.50;;;;;;5070843;28;20035;-68
2022/11/25 08:13:42;;;;;;;4.10;3.20;;;23.00;53.40;;;;;;5070408;28;20025;-68
2022/11/25 08:16:11;;;;;;;3.53;3.08;;;23.10;53.60;;;;;;5065644;28;20098;-68
2022/11/25 08:18:38;;;;;;;4.85;3.70;;;23.00;53.70;;;;;;5063695;28;20104;-69
2022/11/25 08:21:07;;;;;;;6.63;3.88;;;22.90;53.70;;;;;;5032383;28;20501;-68
2022/11/25 08:23:34;;;;;;;4.03;3.53;;;22.90;53.80;;;;;;5039672;28;20068;-69
2022/11/25 08:26:09;;;;;;;5.50;4.00;;;22.90;53.00;;;;;;5070005;28;20481;-69
2022/11/25 08:28:36;;;;;;;4.70;3.47;;;22.70;54.00;;;;;;5059226;28;20554;-68
2022/11/25 08:31:11;;;;;;;5.05;3.95;;;22.60;54.40;;;;;;5070345;28;20090;-68
2022/11/25 08:33:37;;;;;;;8.48;3.92;;;22.70;54.70;;;;;;5070294;28;20093;-69
2022/11/25 08:36:04;;;;;;;4.63;3.40;;;22.70;54.70;;;;;;5061278;28;20036;-68
2022/11/25 08:38:31;;;;;;;3.67;3.17;;;22.70;54.80;;;;;;5070247;28;20037;-68
2022/11/25 08:40:57;;;;;;;4.43;3.60;;;22.50;54.40;;;;;;5070062;28;20029;-68
2022/11/25 08:43:23;;;;;;;3.83;3.53;;;22.60;55.00;;;;;;5070122;28;20505;-68
2022/11/25 08:45:49;;;;;;;4.47;3.20;;;22.60;54.80;;;;;;5069783;28;20045;-68
2022/11/25 08:48:18;;;;;;;4.93;4.00;;;22.60;55.00;;;;;;5068332;28;20070;-68
2022/11/25 08:50:50;;;;;;;4.50;3.28;;;22.60;55.10;;;;;;5049898;28;20029;-69
2022/11/25 08:53:17;;;;;;;3.83;3.30;;;22.50;54.60;;;;;;5067487;28;20554;-67
2022/11/25 08:55:43;;;;;;;3.63;3.13;;;22.60;54.40;;;;;;5052380;28;20466;-66
2022/11/25 08:58:11;;;;;;;20.23;6.18;;;22.70;52.00;;;;;;5068420;28;20067;-66
2022/11/25 09:00:39;;;;;;;3.95;3.53;;;22.90;46.90;;;;;;5073223;28;20037;-66
2022/11/25 09:03:06;;;;;;;3.88;3.53;;;23.00;43.60;;;;;;5072121;28;20040;-71
2022/11/25 09:05:36;;;;;;;4.05;3.58;;;23.00;47.40;;;;;;5005797;28;20832;-68
2022/11/25 09:08:03;;;;;;;4.07;3.20;;;23.10;51.70;;;;;;5053480;28;20107;-68
2022/11/25 09:10:29;;;;;;;4.65;3.53;;;23.20;53.00;;;;;;5053521;28;20469;-69
2022/11/25 09:12:56;;;;;;;4.30;3.33;;;23.20;53.80;;;;;;5035623;28;20351;-66
2022/11/25 09:15:22;;;;;;;4.82;3.95;;;23.20;53.70;;;;;;5055552;28;20033;-68
2022/11/25 09:17:48;;;;;;;4.05;3.17;;;23.20;53.40;;;;;;5062207;28;20043;-68
2022/11/25 09:20:14;;;;;;;3.65;3.20;;;23.10;53.70;;;;;;5063718;28;20045;-68
2022/11/25 09:22:40;;;;;;;4.70;3.40;;;23.10;53.50;;;;;;5055317;28;20389;-67
2022/11/25 09:25:06;;;;;;;4.53;3.45;;;23.10;54.10;;;;;;5036089;28;20085;-68
2022/11/25 09:27:32;;;;;;;4.88;3.80;;;23.10;54.10;;;;;;5062753;28;20056;-67
2022/11/25 09:29:58;;;;;;;4.75;3.80;;;23.10;54.30;;;;;;5053110;28;20517;-67
2022/11/25 09:32:24;;;;;;;4.03;3.22;;;23.20;54.50;;;;;;5053115;28;20082;-67
2022/11/25 09:34:50;;;;;;;5.78;4.25;;;23.00;54.50;;;;;;5058644;28;20028;-67
2022/11/25 09:37:16;;;;;;;6.47;4.40;;;23.10;53.50;;;;;;5072081;28;20082;-68
2022/11/25 09:39:42;;;;;;;5.05;4.25;;;23.10;54.50;;;;;;5070231;28;20033;-67
2022/11/25 09:48:18;;;;;;;4.50;3.83;;;23.00;53.80;;;;;;5072716;28;20036;-67
2022/11/25 09:50:59;;;;;;;3.88;2.75;;;23.10;54.30;;;;;;5062345;28;20033;-67
2022/11/25 09:53:48;;;;;;;5.22;3.90;;;23.10;52.90;;;;;;5049668;28;20036;-68
2022/11/25 09:56:35;;;;;;;4.25;3.50;;;23.20;54.10;;;;;;5071504;28;20089;-68
2022/11/25 09:59:30;;;;;;;4.93;3.33;;;23.30;53.70;;;;;;5072640;28;20028;-67
2022/11/25 10:02:20;;;;;;;4.30;3.60;;;23.30;52.90;;;;;;4986462;28;20042;-68
2022/11/25 10:04:52;;;;;;;3.35;2.50;;;23.20;53.90;;;;;;4969025;28;20037;-68
2022/11/25 10:07:32;;;;;;;4.67;3.53;;;23.30;52.90;;;;;;4994591;28;20094;-67
2022/11/25 10:10:01;;;;;;;5.30;4.30;;;23.30;57.30;;;;;;5017963;28;20052;-66
2022/11/25 10:12:33;;;;;;;7.28;3.72;;;23.60;51.10;;;;;;5011969;28;20049;-68
2022/11/25 10:15:05;;;;;;;5.75;4.50;;;23.50;48.60;;;;;;5016779;28;20030;-67
2022/11/25 10:17:41;;;;;;;6.97;5.05;;;23.50;47.90;;;;;;5010768;28;20048;-66
2022/11/25 10:20:29;;;;;;;4.50;3.58;;;23.60;47.20;;;;;;5002502;28;20043;-66
2022/11/25 10:23:14;;;;;;;6.85;3.83;;;23.40;43.50;;;;;;5018360;28;20510;-70
2022/11/25 10:25:51;;;;;;;5.85;4.20;;;23.30;43.90;;;;;;5009388;28;20479;-68
2022/11/25 10:28:19;;;;;;;5.05;4.13;;;23.20;43.90;;;;;;5016185;28;20117;-67
2022/11/25 10:31:04;;;;;;;5.30;4.82;;;23.20;41.80;;;;;;5024805;28;20048;-65
2022/11/25 10:33:39;;;;;;;5.30;3.80;;;23.30;42.90;;;;;;5009614;28;20065;-67
2022/11/25 10:36:19;;;;;;;4.32;3.03;;;23.40;42.20;;;;;;5009824;28;20527;-66
2022/11/25 10:39:04;;;;;;;5.80;3.97;;;23.40;42.70;;;;;;5047392;28;20041;-66
2022/11/25 10:41:45;;;;;;;6.93;3.90;;;23.40;42.70;;;;;;5071887;28;20033;-66
2022/11/25 10:44:35;;;;;;;3.55;3.17;;;23.20;41.70;;;;;;5048775;28;20558;-68
2022/11/25 10:47:31;;;;;;;3.50;2.60;;;23.30;44.10;;;;;;4968654;28;20057;-70
2022/11/25 10:50:18;;;;;;;3.75;3.00;;;23.30;43.50;;;;;;4968666;28;20035;-68
2022/11/25 10:53:03;;;;;;;5.18;4.63;;;23.30;41.50;;;;;;4967010;28;20050;-68
2022/11/25 10:55:32;;;;;;;4.10;3.70;;;23.30;42.10;;;;;;4969531;28;20031;-68
2022/11/25 10:57:59;;;;;;;11.45;5.47;;;23.20;47.10;;;;;;4970234;28;20049;-67
2022/11/25 11:00:34;;;;;;;21.25;8.63;;;23.40;54.90;;;;;;4948713;28;20362;-66
2022/11/25 11:03:24;;;;;;;7.72;5.32;;;23.80;51.80;;;;;;4948448;28;20568;-67
2022/11/25 11:05:52;;;;;;;9.27;6.65;;;23.80;45.30;;;;;;4948963;28;20043;-68
2022/11/25 11:08:21;;;;;;;7.75;4.70;;;23.80;48.20;;;;;;4933415;28;20055;-68
2022/11/25 11:11:07;;;;;;;29.02;8.48;;;23.80;46.50;;;;;;4949181;28;20232;-67
2022/11/25 11:13:34;;;;;;;34.08;13.30;;;23.90;48.50;;;;;;4948591;28;20046;-66
2022/11/25 11:16:00;;;;;;;7.25;4.95;;;24.00;47.20;;;;;;4965855;28;20035;-68
2022/11/25 11:18:36;;;;;;;7.30;5.75;;;24.10;41.00;;;;;;4967713;28;20096;-67
2022/11/25 11:21:05;;;;;;;8.82;5.60;;;24.00;44.50;;;;;;4969349;28;20503;-68
2022/11/25 11:23:50;;;;;;;20.08;7.60;;;24.10;45.50;;;;;;4990917;28;20060;-68
2022/11/25 11:26:35;;;;;;;28.13;8.43;;;24.20;49.70;;;;;;5048493;28;20189;-67
2022/11/25 11:29:15;;;;;;;11.60;6.38;;;24.40;52.60;;;;;;5028587;28;20115;-67
2022/11/25 11:31:48;;;;;;;9.95;5.78;;;24.30;40.90;;;;;;5059602;28;20079;-67
2022/11/25 11:34:23;;;;;;;;;;;24.20;41.70;;;;;;5076779;28;20093;-66
2022/11/25 11:37:12;;;;;;;29.90;8.55;;;24.20;42.10;;;;;;5078899;28;19915;-67
2022/11/25 11:39:50;;;;;;;14.85;5.57;;;24.20;45.50;;;;;;5074907;28;20073;-68
2022/11/25 11:42:23;;;;;;;9.88;7.57;;;24.10;41.00;;;;;;5081503;28;20036;-68
2022/11/25 11:44:55;;;;;;;7.68;6.10;;;24.10;38.70;;;;;;5073370;28;20040;-68
2022/11/25 11:47:58;;;;;;;10.93;7.10;;;23.90;39.60;;;;;;5088539;28;20064;-67
2022/11/25 11:50:25;;;;;;;8.63;6.18;;;23.80;39.70;;;;;;5074925;28;20619;-67
2022/11/25 11:52:57;;;;;;;7.68;6.70;;;23.80;42.10;;;;;;5073659;28;20024;-66
2022/11/25 11:55:46;;;;;;;7.30;4.72;;;23.90;50.20;;;;;;5079654;28;20052;-67
2022/11/25 11:58:40;;;;;;;6.78;4.95;;;24.10;51.00;;;;;;5089240;28;20028;-67
2022/11/25 12:01:47;;;;;;;10.20;7.82;;;24.00;49.90;;;;;;5075021;28;20035;-65
2022/11/25 12:04:19;;;;;;;8.02;6.43;;;24.00;48.90;;;;;;5079049;28;20127;-65
2022/11/25 12:06:59;;;;;;;9.90;5.78;;;23.90;51.50;;;;;;5083555;28;20036;-65
2022/11/25 12:09:28;;;;;;;8.95;6.20;;;23.80;51.60;;;;;;5059362;28;20052;-67
2022/11/25 12:12:03;;;;;;;8.85;5.85;;;23.90;51.60;;;;;;5058617;28;20033;-67
2022/11/25 12:14:38;;;;;;;9.88;6.28;;;23.80;51.40;;;;;;5063549;28;20535;-67
2022/11/25 12:17:39;;;;;;;9.38;6.57;;;23.90;52.00;;;;;;5063326;28;20056;-69
2022/11/25 12:20:21;;;;;;;9.68;6.85;;;23.90;51.50;;;;;;5021644;28;20049;-67
2022/11/25 12:22:55;;;;;;;8.68;5.40;;;23.90;51.80;;;;;;5028088;28;20064;-67
2022/11/25 12:25:24;;;;;;;9.88;5.57;;;23.80;52.30;;;;;;5027302;28;20073;-68
2022/11/25 12:28:25;;;;;;;10.68;6.72;;;23.90;52.20;;;;;;5027649;28;20042;-67
2022/11/25 12:31:15;;;;;;;10.00;6.22;;;23.90;51.60;;;;;;4972267;28;20055;-67
2022/11/25 12:33:51;;;;;;;7.72;6.35;;;23.90;52.00;;;;;;4968219;28;20547;-67
2022/11/25 12:36:47;;;;;;;11.32;6.07;;;23.90;52.10;;;;;;4953290;29;20054;-67
2022/11/25 12:39:38;;;;;;;9.70;6.00;;;23.90;52.10;;;;;;4934124;29;20032;-67
2022/11/25 12:42:17;;;;;;;8.88;5.55;;;23.80;52.30;;;;;;4942571;29;20126;-68
2022/11/25 12:45:02;;;;;;;8.70;5.68;;;23.80;52.30;;;;;;4936181;29;20384;-68
2022/11/25 12:47:29;;;;;;;9.88;6.32;;;23.90;52.20;;;;;;4952261;29;20538;-67
2022/11/25 12:49:55;;;;;;;11.40;6.50;;;23.90;52.60;;;;;;4950860;29;20134;-67
2022/11/25 12:52:48;;;;;;;10.95;5.13;;;23.80;52.50;;;;;;4952873;28;20110;-68
2022/11/25 12:55:19;;;;;;;8.88;6.50;;;23.90;52.50;;;;;;4952022;29;20043;-68
2022/11/25 12:58:17;;;;;;;6.80;5.35;;;23.80;52.50;;;;;;4952919;29;20054;-68
2022/11/25 13:01:13;;;;;;;7.15;5.38;;;23.80;52.80;;;;;;4953285;29;20046;-68
2022/11/25 13:04:05;;;;;;;7.45;5.43;;;23.80;52.70;;;;;;4952073;29;20546;-67
2022/11/25 13:07:03;;;;;;;8.25;6.10;;;23.80;52.50;;;;;;4942254;28;20043;-67
2022/11/25 13:10:06;;;;;;;8.95;6.03;;;23.70;51.50;;;;;;4971714;28;20047;-67
2022/11/25 13:12:32;;;;;;;8.45;6.20;;;23.60;52.00;;;;;;4967623;28;20580;-67
2022/11/25 13:15:25;;;;;;;4.78;3.53;;;23.70;52.90;;;;;;4973457;28;20121;-67
2022/11/25 13:17:59;;;;;;;9.10;5.30;;;23.70;52.60;;;;;;4992440;28;20097;-67